createdAt,value
2023-05-19T00:01:37.558Z,1.50
2023-05-19T00:04:12.421Z,2.03
2023-05-19T00:06:51.032Z,2.43
2023-05-19T00:09:24.440Z,2.47
2023-05-19T00:11:57.894Z,1.70
2023-05-19T00:14:31.529Z,2.83
2023-05-19T00:17:05.016Z,2.03
2023-05-19T00:19:39.465Z,2.67
2023-05-19T00:22:12.698Z,2.80
2023-05-19T00:24:45.933Z,3.23
2023-05-19T00:27:19.140Z,3.07
2023-05-19T00:29:52.417Z,3.30
2023-05-19T00:32:25.733Z,3.17
2023-05-19T00:34:58.950Z,2.57
2023-05-19T00:37:32.271Z,3.43
2023-05-19T00:40:06.626Z,3.50
2023-05-19T00:42:40.028Z,4.30
2023-05-19T00:45:13.265Z,5.17
2023-05-19T00:47:46.686Z,3.80
2023-05-19T00:50:20.044Z,4.40
2023-05-19T00:52:53.258Z,5.33
2023-05-19T00:55:30.039Z,5.30
2023-05-19T00:58:04.002Z,4.03
2023-05-19T01:00:38.502Z,3.33
2023-05-19T01:03:11.949Z,3.37
2023-05-19T01:05:45.291Z,2.93
2023-05-19T01:08:18.585Z,2.93
2023-05-19T01:10:51.921Z,3.10
2023-05-19T01:13:25.224Z,2.67
2023-05-19T01:16:01.582Z,2.90
2023-05-19T01:18:41.705Z,2.70
2023-05-19T01:21:37.888Z,1.80
2023-05-19T01:24:22.829Z,2.43
2023-05-19T01:27:14.773Z,2.50
2023-05-19T01:29:59.115Z,1.47
2023-05-19T01:32:34.418Z,1.67
2023-05-19T01:35:08.649Z,1.80
2023-05-19T01:37:42.068Z,2.10
2023-05-19T01:40:15.409Z,2.50
2023-05-19T01:42:49.601Z,1.40
2023-05-19T01:45:23.396Z,2.23
2023-05-19T01:47:57.918Z,2.97
2023-05-19T01:50:32.013Z,2.00
2023-05-19T01:53:05.535Z,1.90
2023-05-19T01:55:49.868Z,3.00
2023-05-19T01:58:32.293Z,2.10
2023-05-19T02:01:26.424Z,2.77
2023-05-19T02:04:03.369Z,2.20
2023-05-19T02:06:39.799Z,1.73
2023-05-19T02:09:14.693Z,2.17
2023-05-19T02:11:53.352Z,1.37
2023-05-19T02:14:31.400Z,2.20
2023-05-19T02:17:05.334Z,2.43
2023-05-19T02:19:40.171Z,1.97
2023-05-19T02:22:13.453Z,1.57
2023-05-19T02:24:47.747Z,1.50
2023-05-19T02:27:21.235Z,1.30
2023-05-19T02:29:54.556Z,2.40
2023-05-19T02:32:27.944Z,2.33
2023-05-19T02:35:01.302Z,1.80
2023-05-19T02:37:35.431Z,2.60
2023-05-19T02:40:09.013Z,3.13
2023-05-19T02:42:42.252Z,2.43
2023-05-19T02:45:15.695Z,2.03
2023-05-19T02:47:48.958Z,3.43
2023-05-19T02:50:22.551Z,2.23
2023-05-19T02:52:55.898Z,2.23
2023-05-19T02:55:29.737Z,2.60
2023-05-19T02:58:03.137Z,2.17
2023-05-19T03:00:36.354Z,2.20
2023-05-19T03:03:10.454Z,2.13
2023-05-19T03:05:44.152Z,1.97
2023-05-19T03:08:17.399Z,1.77
2023-05-19T03:10:50.756Z,3.50
2023-05-19T03:13:23.972Z,2.23
2023-05-19T03:15:59.168Z,2.97
2023-05-19T03:18:32.458Z,2.63
2023-05-19T03:21:06.029Z,3.03
2023-05-19T03:23:39.246Z,2.33
2023-05-19T03:26:12.518Z,2.10
2023-05-19T03:28:45.833Z,2.80
2023-05-19T03:31:19.323Z,1.90
2023-05-19T03:33:52.573Z,2.30
2023-05-19T03:36:31.878Z,2.47
2023-05-19T03:39:05.113Z,1.73
2023-05-19T03:41:38.620Z,1.40
2023-05-19T03:44:11.880Z,1.70
2023-05-19T03:46:45.199Z,1.60
2023-05-19T03:49:18.446Z,2.70
2023-05-19T03:51:51.649Z,2.47
2023-05-19T03:54:24.975Z,1.90
2023-05-19T03:56:58.289Z,2.40
2023-05-19T03:59:31.543Z,1.70
2023-05-19T04:02:04.881Z,3.93
2023-05-19T04:04:38.199Z,2.30
2023-05-19T04:07:11.741Z,2.40
2023-05-19T04:09:45.201Z,2.80
2023-05-19T04:12:18.446Z,2.93
2023-05-19T04:14:51.688Z,2.43
2023-05-19T04:17:26.422Z,2.53
2023-05-19T04:19:59.983Z,2.00
2023-05-19T04:22:33.314Z,2.17
2023-05-19T04:25:07.595Z,2.23
2023-05-19T04:27:40.993Z,2.40
2023-05-19T04:30:18.565Z,1.70
2023-05-19T04:32:52.137Z,2.00
2023-05-19T04:35:25.800Z,2.70
2023-05-19T04:37:59.221Z,1.83
2023-05-19T04:40:32.618Z,3.23
2023-05-19T04:43:07.329Z,2.13
2023-05-19T04:45:42.511Z,1.90
2023-05-19T04:48:16.257Z,1.83
2023-05-19T04:50:49.557Z,3.10
2023-05-19T04:53:22.943Z,2.57
2023-05-19T04:56:01.542Z,2.67
2023-05-19T04:58:35.060Z,1.93
2023-05-19T05:01:09.580Z,2.20
2023-05-19T05:03:43.339Z,3.60
2023-05-19T05:06:16.661Z,3.03
2023-05-19T05:08:50.094Z,1.83
2023-05-19T05:11:23.992Z,3.50
2023-05-19T05:14:00.215Z,1.80
2023-05-19T05:16:35.358Z,3.13
2023-05-19T05:19:08.901Z,3.00
2023-05-19T05:21:43.240Z,1.93
2023-05-19T05:24:16.710Z,2.20
2023-05-19T05:26:50.199Z,2.53
2023-05-19T05:29:23.445Z,2.50
2023-05-19T05:31:56.712Z,2.77
2023-05-19T05:34:29.951Z,2.47
2023-05-19T05:37:03.203Z,1.80
2023-05-19T05:39:36.463Z,1.80
2023-05-19T05:42:09.729Z,1.90
2023-05-19T05:44:42.965Z,1.97
2023-05-19T05:47:16.424Z,2.60
2023-05-19T05:49:51.151Z,2.23
2023-05-19T05:52:29.060Z,2.40
2023-05-19T05:55:02.586Z,3.20
2023-05-19T05:57:36.461Z,2.77
2023-05-19T06:00:15.319Z,3.13
2023-05-19T06:02:51.254Z,2.20
2023-05-19T06:05:25.225Z,3.00
2023-05-19T06:07:58.465Z,2.80
2023-05-19T06:10:33.427Z,3.60
2023-05-19T06:13:06.933Z,2.50
2023-05-19T06:15:40.363Z,2.73
2023-05-19T06:18:13.687Z,2.43
2023-05-19T06:20:46.982Z,2.63
2023-05-19T06:23:20.260Z,2.93
2023-05-19T06:25:53.565Z,2.97
2023-05-19T06:28:26.823Z,3.00
2023-05-19T06:31:00.185Z,3.03
2023-05-19T06:33:33.589Z,3.83
2023-05-19T06:36:10.663Z,3.43
2023-05-19T06:38:43.990Z,2.53
2023-05-19T06:41:19.501Z,2.20
2023-05-19T06:43:52.743Z,2.70
2023-05-19T06:46:26.198Z,3.23
2023-05-19T06:48:59.535Z,2.80
2023-05-19T06:51:32.843Z,3.13
2023-05-19T06:54:06.178Z,2.60
2023-05-19T06:56:39.635Z,3.30
2023-05-19T06:59:13.238Z,2.33
2023-05-19T07:01:47.232Z,3.80
2023-05-19T07:04:21.399Z,2.80
2023-05-19T07:06:55.055Z,2.83
2023-05-19T07:09:42.244Z,3.10
2023-05-19T07:12:15.626Z,2.27
2023-05-19T07:14:48.883Z,4.27
2023-05-19T07:17:22.462Z,2.67
2023-05-19T07:19:55.853Z,4.07
2023-05-19T07:22:30.142Z,3.60
2023-05-19T07:25:03.478Z,3.87
2023-05-19T07:27:37.062Z,3.53
2023-05-19T07:30:10.628Z,3.43
2023-05-19T07:32:43.934Z,3.00
2023-05-19T07:35:17.249Z,3.07
2023-05-19T07:37:51.098Z,3.80
2023-05-19T07:40:24.372Z,2.73
2023-05-19T07:42:57.610Z,3.70
2023-05-19T07:45:31.024Z,3.77
2023-05-19T07:48:04.527Z,3.13
2023-05-19T07:50:37.794Z,2.50
2023-05-19T07:53:11.209Z,2.50
2023-05-19T07:55:44.474Z,3.40
2023-05-19T07:58:17.884Z,2.80
2023-05-19T08:00:51.127Z,3.77
2023-05-19T08:03:24.561Z,3.10
2023-05-19T08:05:58.003Z,3.17
2023-05-19T08:08:33.325Z,3.60
2023-05-19T08:11:06.646Z,2.67
2023-05-19T08:13:39.992Z,3.00
2023-05-19T08:16:13.384Z,3.13
2023-05-19T08:18:46.729Z,3.57
2023-05-19T08:21:19.948Z,2.00
2023-05-19T08:23:53.326Z,2.90
2023-05-19T08:26:26.709Z,3.20
2023-05-19T08:28:59.968Z,3.07
2023-05-19T08:31:33.313Z,2.67
2023-05-19T08:34:06.720Z,1.73
2023-05-19T08:36:40.837Z,1.93
2023-05-19T08:39:16.175Z,2.43
2023-05-19T08:41:49.433Z,2.63
2023-05-19T08:44:22.884Z,3.37
2023-05-19T08:46:56.446Z,1.03
2023-05-19T08:49:31.463Z,1.50
2023-05-19T08:52:16.036Z,1.77
2023-05-19T08:55:02.489Z,1.63
2023-05-19T08:57:36.588Z,2.00
2023-05-19T09:00:13.540Z,2.50
2023-05-19T09:02:59.655Z,2.07
2023-05-19T09:05:40.174Z,2.80
2023-05-19T09:08:13.565Z,2.30
2023-05-19T09:10:46.864Z,2.67
2023-05-19T09:13:20.191Z,2.60
2023-05-19T09:15:59.240Z,2.50
2023-05-19T09:18:32.685Z,3.10
2023-05-19T09:21:07.564Z,1.73
2023-05-19T09:23:40.817Z,2.60
2023-05-19T09:26:16.054Z,3.20
2023-05-19T09:28:49.327Z,2.80
2023-05-19T09:31:22.570Z,3.80
2023-05-19T09:33:55.847Z,2.97
2023-05-19T09:36:31.391Z,2.47
2023-05-19T09:39:13.576Z,1.80
2023-05-19T09:41:47.041Z,2.57
2023-05-19T09:44:30.650Z,2.00
2023-05-19T09:47:04.474Z,2.60
2023-05-19T09:49:38.655Z,1.27
2023-05-19T09:52:12.742Z,2.60
2023-05-19T09:54:46.322Z,2.30
2023-05-19T09:57:25.866Z,2.13
2023-05-19T09:59:59.477Z,2.60
2023-05-19T10:02:33.518Z,1.77
2023-05-19T10:05:07.202Z,2.57
2023-05-19T10:07:41.060Z,2.40
2023-05-19T10:10:14.436Z,1.87
2023-05-19T10:12:48.185Z,3.33
2023-05-19T10:15:29.537Z,2.57
2023-05-19T10:18:03.856Z,2.53
2023-05-19T10:20:37.445Z,3.30
2023-05-19T10:23:10.719Z,1.80
2023-05-19T10:25:44.197Z,2.77
2023-05-19T10:28:21.045Z,2.10
2023-05-19T10:30:57.410Z,2.00
2023-05-19T10:33:37.496Z,2.03
2023-05-19T10:36:26.360Z,2.57
2023-05-19T10:39:19.727Z,2.03
2023-05-19T10:42:13.249Z,2.70
2023-05-19T10:44:46.492Z,1.50
2023-05-19T10:47:26.426Z,2.20
2023-05-19T10:50:01.337Z,1.73
2023-05-19T10:52:38.076Z,2.10
2023-05-19T10:55:17.819Z,1.83
2023-05-19T10:58:06.108Z,2.10
2023-05-19T11:00:41.388Z,3.30
2023-05-19T11:03:18.792Z,1.80
2023-05-19T11:05:52.338Z,2.90
2023-05-19T11:08:36.453Z,2.70
2023-05-19T11:11:13.806Z,2.10
2023-05-19T11:13:55.865Z,1.90
2023-05-19T11:16:34.956Z,1.80
2023-05-19T11:19:11.321Z,3.23
2023-05-19T11:22:08.239Z,3.00
2023-05-19T11:27:57.236Z,1.90
2023-05-19T11:30:33.816Z,2.90
2023-05-19T11:33:09.980Z,2.60
2023-05-19T11:35:44.521Z,2.63
2023-05-19T11:38:25.150Z,1.80
2023-05-19T11:40:58.915Z,2.03
2023-05-19T11:43:32.142Z,2.40
2023-05-19T11:46:05.557Z,2.73
2023-05-19T11:48:44.095Z,1.47
2023-05-19T11:51:18.596Z,2.50
2023-05-19T11:53:54.198Z,2.60
2023-05-19T11:56:27.483Z,1.80
2023-05-19T11:59:00.809Z,2.70
2023-05-19T12:01:34.571Z,2.97
2023-05-19T12:04:11.054Z,2.10
2023-05-19T12:06:44.428Z,2.53
2023-05-19T12:09:17.779Z,2.37
2023-05-19T12:11:55.714Z,1.77
2023-05-19T12:14:31.230Z,2.30
2023-05-19T12:17:17.503Z,3.17
2023-05-19T12:19:50.987Z,1.93
2023-05-19T12:22:24.382Z,2.40
2023-05-19T12:24:57.851Z,2.70
2023-05-19T12:27:32.508Z,2.20
2023-05-19T12:30:07.066Z,2.77
2023-05-19T12:32:40.403Z,2.30
2023-05-19T12:35:15.552Z,2.53
2023-05-19T12:37:49.597Z,2.17
2023-05-19T12:40:23.248Z,3.60
2023-05-19T12:42:59.707Z,3.50
2023-05-19T12:45:37.245Z,1.87
2023-05-19T12:48:15.924Z,3.10
2023-05-19T12:50:49.449Z,3.07
2023-05-19T12:53:28.197Z,3.00
2023-05-19T12:56:11.155Z,2.93
2023-05-19T12:58:46.090Z,3.20
2023-05-19T13:01:20.018Z,3.03
2023-05-19T13:03:53.636Z,2.60
2023-05-19T13:06:27.392Z,3.30
2023-05-19T13:09:00.649Z,2.37
2023-05-19T13:11:34.518Z,2.10
2023-05-19T13:14:07.843Z,2.90
2023-05-19T13:16:41.148Z,2.80
2023-05-19T13:19:24.870Z,2.80
2023-05-19T13:21:58.894Z,2.30
2023-05-19T13:24:32.159Z,2.60
2023-05-19T13:27:05.810Z,2.30
2023-05-19T13:29:39.140Z,3.17
2023-05-19T13:32:12.416Z,3.17
2023-05-19T13:34:45.757Z,3.30
2023-05-19T13:37:19.129Z,3.03
2023-05-19T13:39:52.452Z,3.67
2023-05-19T13:42:25.922Z,2.77
2023-05-19T13:45:00.495Z,3.67
2023-05-19T13:47:34.320Z,2.50
2023-05-19T13:50:07.777Z,2.37
2023-05-19T13:52:41.140Z,3.17
2023-05-19T13:55:14.335Z,3.20
2023-05-19T13:57:47.676Z,3.20
2023-05-19T14:00:21.397Z,2.67
2023-05-19T14:02:55.032Z,3.00
2023-05-19T14:05:29.026Z,3.00
2023-05-19T14:08:03.679Z,3.20
2023-05-19T14:10:38.147Z,2.87
2023-05-19T14:13:31.483Z,4.20
2023-05-19T14:16:06.146Z,4.00
2023-05-19T14:18:39.565Z,3.93
2023-05-19T14:21:13.121Z,3.10
2023-05-19T14:23:46.406Z,4.93
2023-05-19T14:26:19.862Z,4.37
2023-05-19T14:28:53.101Z,3.97
2023-05-19T14:31:26.414Z,4.83
2023-05-19T14:34:00.129Z,4.40
2023-05-19T14:36:35.124Z,3.50
2023-05-19T14:39:08.488Z,3.80
2023-05-19T14:41:41.768Z,3.80
2023-05-19T14:44:15.027Z,4.00
2023-05-19T14:46:48.522Z,4.00
2023-05-19T14:49:21.829Z,3.43
2023-05-19T14:51:55.168Z,4.00
2023-05-19T14:54:28.431Z,4.53
2023-05-19T14:57:01.798Z,4.13
2023-05-19T14:59:41.374Z,4.00
2023-05-19T15:02:14.686Z,4.00
2023-05-19T15:04:47.952Z,4.30
2023-05-19T15:07:21.682Z,3.97
2023-05-19T15:09:54.997Z,3.63
2023-05-19T15:12:28.512Z,4.00
2023-05-19T15:15:01.862Z,3.73
2023-05-19T15:17:36.894Z,2.70
2023-05-19T15:20:10.455Z,2.90
2023-05-19T15:22:43.692Z,3.40
2023-05-19T15:25:16.982Z,2.93
2023-05-19T15:27:50.321Z,3.03
2023-05-19T15:30:23.614Z,3.00
2023-05-19T15:32:57.018Z,3.20
2023-05-19T15:35:30.321Z,2.60
2023-05-19T15:38:06.281Z,3.20
2023-05-19T15:40:42.977Z,3.77
2023-05-19T15:43:17.371Z,5.60
2023-05-19T15:45:54.763Z,3.20
2023-05-19T15:48:29.123Z,4.43
2023-05-19T15:51:02.578Z,2.37
2023-05-19T15:53:36.420Z,4.30
2023-05-19T15:56:09.673Z,4.50
2023-05-19T15:58:43.405Z,3.90
2023-05-19T16:01:17.257Z,3.60
2023-05-19T16:03:50.722Z,4.93
2023-05-19T16:06:25.136Z,4.13
2023-05-19T16:08:58.407Z,3.43
2023-05-19T16:11:31.738Z,3.87
2023-05-19T16:14:05.036Z,5.30
2023-05-19T16:16:41.295Z,6.60
2023-05-19T16:19:14.596Z,6.13
2023-05-19T16:21:48.154Z,6.10
2023-05-19T16:24:21.379Z,5.73
2023-05-19T16:26:54.631Z,4.17
2023-05-19T16:29:27.915Z,4.03
2023-05-19T16:32:01.184Z,4.43
2023-05-19T16:34:34.651Z,4.90
2023-05-19T16:37:10.358Z,4.03
2023-05-19T16:39:46.780Z,4.20
2023-05-19T16:42:20.127Z,4.70
2023-05-19T16:44:55.599Z,4.10
2023-05-19T16:47:28.906Z,4.20
2023-05-19T16:50:02.167Z,5.83
2023-05-19T16:52:35.549Z,4.53
2023-05-19T16:55:08.967Z,5.53
2023-05-19T16:57:42.648Z,4.83
2023-05-19T17:00:16.262Z,5.13
2023-05-19T17:02:49.652Z,5.10
2023-05-19T17:05:23.009Z,4.93
2023-05-19T17:07:56.322Z,4.60
2023-05-19T17:10:29.584Z,5.30
2023-05-19T17:13:02.843Z,4.70
2023-05-19T17:15:36.536Z,3.80
2023-05-19T17:18:11.458Z,3.93
2023-05-19T17:20:44.916Z,4.40
2023-05-19T17:23:18.202Z,4.87
2023-05-19T17:25:55.290Z,3.80
2023-05-19T17:28:28.513Z,3.57
2023-05-19T17:31:01.809Z,4.60
2023-05-19T17:33:35.127Z,4.33
2023-05-19T17:36:09.190Z,4.13
2023-05-19T17:38:42.531Z,5.27
2023-05-19T17:41:15.994Z,5.17
2023-05-19T17:43:49.257Z,4.17
2023-05-19T17:46:22.583Z,3.63
2023-05-19T17:48:55.952Z,3.43
2023-05-19T17:51:29.344Z,3.43
2023-05-19T17:54:02.708Z,4.10
2023-05-19T17:56:40.832Z,3.37
2023-05-19T17:59:14.158Z,3.80
2023-05-19T18:01:47.641Z,3.30
2023-05-19T18:04:21.115Z,4.07
2023-05-19T18:06:55.824Z,3.93
2023-05-19T18:09:29.815Z,3.50
2023-05-19T18:12:03.184Z,4.17
2023-05-19T18:14:36.453Z,3.33
2023-05-19T18:17:09.804Z,4.73
2023-05-19T18:19:43.037Z,2.93
2023-05-19T18:22:17.596Z,4.33
2023-05-19T18:24:51.834Z,3.87
2023-05-19T18:27:25.140Z,3.90
2023-05-19T18:29:58.462Z,4.90
2023-05-19T18:32:31.781Z,4.47
2023-05-19T18:35:05.349Z,4.13
2023-05-19T18:37:38.585Z,3.40
2023-05-19T18:40:11.951Z,4.03
2023-05-19T18:42:45.403Z,3.90
2023-05-19T18:45:19.029Z,3.83
2023-05-19T18:47:52.400Z,5.50
2023-05-19T18:50:25.659Z,2.90
2023-05-19T18:52:58.968Z,4.50
2023-05-19T18:55:32.342Z,4.83
2023-05-19T18:58:06.232Z,4.97
2023-05-19T19:00:39.491Z,4.17
2023-05-19T19:03:12.902Z,4.60
2023-05-19T19:05:46.249Z,3.90
2023-05-19T19:08:19.549Z,4.77
2023-05-19T19:10:54.692Z,3.93
2023-05-19T19:13:28.500Z,5.90
2023-05-19T19:16:01.762Z,3.97
2023-05-19T19:18:36.544Z,4.93
2023-05-19T19:21:09.924Z,3.80
2023-05-19T19:23:43.291Z,3.27
2023-05-19T19:26:16.768Z,4.60
2023-05-19T19:28:50.308Z,5.57
2023-05-19T19:31:23.691Z,5.87
2023-05-19T19:33:58.971Z,5.30
2023-05-19T19:36:32.508Z,6.33
2023-05-19T19:39:05.761Z,5.60
2023-05-19T19:41:40.915Z,5.20
2023-05-19T19:44:14.145Z,6.03
2023-05-19T19:46:47.415Z,5.30
2023-05-19T19:49:20.961Z,4.60
2023-05-19T19:51:54.220Z,4.87
2023-05-19T19:54:27.501Z,5.10
2023-05-19T19:57:00.757Z,5.10
2023-05-19T19:59:34.744Z,5.57
2023-05-19T20:02:08.067Z,5.10
2023-05-19T20:04:41.398Z,6.73
2023-05-19T20:07:14.698Z,7.63
2023-05-19T20:09:49.650Z,5.77
2023-05-19T20:12:23.140Z,5.27
2023-05-19T20:14:56.669Z,6.30
2023-05-19T20:17:29.962Z,6.47
2023-05-19T20:20:07.994Z,8.30
2023-05-19T20:22:41.261Z,4.90
2023-05-19T20:25:14.498Z,7.53
2023-05-19T20:27:47.721Z,6.70
2023-05-19T20:30:20.979Z,6.03
2023-05-19T20:32:54.363Z,6.60
2023-05-19T20:35:27.626Z,6.53
2023-05-19T20:38:01.108Z,6.10
2023-05-19T20:40:34.353Z,7.00
2023-05-19T20:43:07.739Z,5.30
2023-05-19T20:45:43.447Z,8.03
2023-05-19T20:48:16.794Z,7.07
2023-05-19T20:50:50.298Z,6.80
2023-05-19T20:53:23.602Z,5.67
2023-05-19T20:55:56.874Z,4.93
2023-05-19T20:58:31.436Z,5.73
2023-05-19T21:01:04.702Z,6.90
2023-05-19T21:03:38.033Z,4.80
2023-05-19T21:06:11.374Z,6.27
2023-05-19T21:08:44.728Z,5.10
2023-05-19T21:11:17.921Z,6.90
2023-05-19T21:13:51.355Z,7.23
2023-05-19T21:16:24.774Z,6.47
2023-05-19T21:18:58.130Z,6.17
2023-05-19T21:21:31.746Z,6.20
2023-05-19T21:24:05.131Z,5.87
2023-05-19T21:26:38.326Z,4.57
2023-05-19T21:29:14.218Z,7.50
2023-05-19T21:31:47.436Z,5.50
2023-05-19T21:34:20.805Z,6.90
2023-05-19T21:36:54.087Z,6.40
2023-05-19T21:39:27.362Z,6.30
2023-05-19T21:42:00.770Z,5.80
2023-05-19T21:44:34.140Z,4.80
2023-05-19T21:47:10.517Z,6.03
2023-05-19T21:49:43.805Z,5.53
2023-05-19T21:52:17.281Z,7.00
2023-05-19T21:54:51.997Z,6.33
2023-05-19T21:57:25.469Z,6.10
2023-05-19T22:00:00.190Z,5.93
2023-05-19T22:02:33.475Z,6.13
2023-05-19T22:05:06.905Z,6.37
2023-05-19T22:07:40.169Z,6.63
2023-05-19T22:10:14.102Z,6.00
2023-05-19T22:12:47.352Z,8.30
2023-05-19T22:15:20.783Z,6.40
2023-05-19T22:17:54.100Z,5.90
2023-05-19T22:20:27.374Z,6.97
2023-05-19T22:23:04.044Z,7.50
2023-05-19T22:25:37.352Z,7.00
2023-05-19T22:28:10.654Z,7.97
2023-05-19T22:30:44.197Z,6.83
2023-05-19T22:33:17.576Z,6.80
2023-05-19T22:35:51.082Z,7.47
2023-05-19T22:38:24.299Z,7.93
2023-05-19T22:41:00.493Z,8.23
2023-05-19T22:43:33.752Z,7.93
2023-05-19T22:46:07.049Z,7.63
2023-05-19T22:48:40.377Z,7.47
2023-05-19T22:51:13.646Z,6.70
2023-05-19T22:53:48.419Z,7.70
2023-05-19T22:56:22.628Z,5.60
2023-05-19T22:58:56.119Z,6.20
2023-05-19T23:01:29.448Z,6.47
2023-05-19T23:04:02.711Z,6.90
2023-05-19T23:06:36.227Z,7.70
2023-05-19T23:09:09.436Z,9.60
2023-05-19T23:11:42.789Z,6.03
2023-05-19T23:14:16.079Z,8.13
2023-05-19T23:16:49.664Z,5.63
2023-05-19T23:19:23.100Z,7.57
2023-05-19T23:21:56.427Z,8.20
2023-05-19T23:24:29.685Z,9.43
2023-05-19T23:27:03.009Z,6.53
2023-05-19T23:29:36.291Z,9.03
2023-05-19T23:32:09.512Z,8.07
2023-05-19T23:34:42.834Z,7.30
2023-05-19T23:37:16.239Z,9.27
2023-05-19T23:39:49.499Z,7.33
2023-05-19T23:42:22.706Z,8.17
2023-05-19T23:44:55.956Z,8.00
2023-05-19T23:47:29.223Z,10.73
2023-05-19T23:50:02.495Z,8.47
2023-05-19T23:52:35.761Z,7.00
2023-05-19T23:55:09.810Z,8.47
2023-05-19T23:57:43.428Z,9.50
